sensor_id;sensor_type;location;lat;lon;timestamp;temperature;humidity
11264;DHT22;5689;48.798;9.070;2024-02-23T00:00:31;5.80;99.90
11264;DHT22;5689;48.798;9.070;2024-02-23T00:02:59;5.80;99.90
11264;DHT22;5689;48.798;9.070;2024-02-23T00:05:27;5.90;99.90
11264;DHT22;5689;48.798;9.070;2024-02-23T00:07:55;5.90;99.90
11264;DHT22;5689;48.798;9.070;2024-02-23T00:10:24;5.90;99.90
11264;DHT22;5689;48.798;9.070;2024-02-23T00:12:52;5.90;99.90
11264;DHT22;5689;48.798;9.070;2024-02-23T00:15:22;6.00;99.90
11264;DHT22;5689;48.798;9.070;2024-02-23T00:17:51;5.90;99.90
11264;DHT22;5689;48.798;9.070;2024-02-23T00:20:19;5.90;99.90
11264;DHT22;5689;48.798;9.070;2024-02-23T00:22:47;5.90;99.90
11264;DHT22;5689;48.798;9.070;2024-02-23T00:25:15;5.90;99.90
11264;DHT22;5689;48.798;9.070;2024-02-23T00:27:44;5.90;99.90
11264;DHT22;5689;48.798;9.070;2024-02-23T00:30:14;6.00;99.90
11264;DHT22;5689;48.798;9.070;2024-02-23T00:32:44;6.10;99.90
11264;DHT22;5689;48.798;9.070;2024-02-23T00:35:12;6.10;99.90
11264;DHT22;5689;48.798;9.070;2024-02-23T00:37:40;6.20;99.90
11264;DHT22;5689;48.798;9.070;2024-02-23T00:40:09;6.20;99.90
11264;DHT22;5689;48.798;9.070;2024-02-23T00:42:38;6.20;99.90
11264;DHT22;5689;48.798;9.070;2024-02-23T00:45:07;6.20;99.90
11264;DHT22;5689;48.798;9.070;2024-02-23T00:47:35;6.20;99.90
11264;DHT22;5689;48.798;9.070;2024-02-23T00:50:06;6.10;99.90
11264;DHT22;5689;48.798;9.070;2024-02-23T00:52:35;6.10;99.90
11264;DHT22;5689;48.798;9.070;2024-02-23T00:55:03;6.20;99.90
11264;DHT22;5689;48.798;9.070;2024-02-23T00:57:32;6.20;99.90
11264;DHT22;5689;48.798;9.070;2024-02-23T01:00:00;6.20;99.90
11264;DHT22;5689;48.798;9.070;2024-02-23T01:02:29;6.20;99.90
11264;DHT22;5689;48.798;9.070;2024-02-23T01:04:57;6.20;99.90
11264;DHT22;5689;48.798;9.070;2024-02-23T01:07:27;6.20;99.90
11264;DHT22;5689;48.798;9.070;2024-02-23T01:09:55;6.20;99.90
11264;DHT22;5689;48.798;9.070;2024-02-23T01:12:25;6.30;99.90
11264;DHT22;5689;48.798;9.070;2024-02-23T01:14:53;6.30;99.90
11264;DHT22;5689;48.798;9.070;2024-02-23T01:17:21;6.20;99.90
11264;DHT22;5689;48.798;9.070;2024-02-23T01:19:49;6.20;99.90
11264;DHT22;5689;48.798;9.070;2024-02-23T01:22:18;6.20;99.90
11264;DHT22;5689;48.798;9.070;2024-02-23T01:24:48;6.30;99.90
11264;DHT22;5689;48.798;9.070;2024-02-23T01:27:16;6.20;99.90
11264;DHT22;5689;48.798;9.070;2024-02-23T01:29:45;6.30;99.90
11264;DHT22;5689;48.798;9.070;2024-02-23T01:32:13;6.20;99.90
11264;DHT22;5689;48.798;9.070;2024-02-23T01:34:41;6.20;99.90
11264;DHT22;5689;48.798;9.070;2024-02-23T01:37:09;6.20;99.90
11264;DHT22;5689;48.798;9.070;2024-02-23T01:39:38;6.20;99.90
11264;DHT22;5689;48.798;9.070;2024-02-23T01:42:08;6.10;99.90
11264;DHT22;5689;48.798;9.070;2024-02-23T01:44:36;6.20;99.90
11264;DHT22;5689;48.798;9.070;2024-02-23T01:47:05;6.20;99.90
11264;DHT22;5689;48.798;9.070;2024-02-23T01:49:34;6.20;99.90
11264;DHT22;5689;48.798;9.070;2024-02-23T01:52:03;6.20;99.90
11264;DHT22;5689;48.798;9.070;2024-02-23T01:54:32;6.20;99.90
11264;DHT22;5689;48.798;9.070;2024-02-23T01:57:01;6.20;99.90
11264;DHT22;5689;48.798;9.070;2024-02-23T01:59:33;6.20;99.90
11264;DHT22;5689;48.798;9.070;2024-02-23T02:02:03;6.20;99.90
11264;DHT22;5689;48.798;9.070;2024-02-23T02:04:32;6.20;99.90
11264;DHT22;5689;48.798;9.070;2024-02-23T02:07:00;6.10;99.90
11264;DHT22;5689;48.798;9.070;2024-02-23T02:09:29;6.20;99.90
11264;DHT22;5689;48.798;9.070;2024-02-23T02:11:57;6.00;99.90
11264;DHT22;5689;48.798;9.070;2024-02-23T02:14:25;6.00;99.90
11264;DHT22;5689;48.798;9.070;2024-02-23T02:16:58;6.00;99.90
11264;DHT22;5689;48.798;9.070;2024-02-23T02:19:26;6.10;99.90
11264;DHT22;5689;48.798;9.070;2024-02-23T02:21:54;6.10;99.90
11264;DHT22;5689;48.798;9.070;2024-02-23T02:24:23;6.10;99.90
11264;DHT22;5689;48.798;9.070;2024-02-23T02:26:51;6.10;99.90
11264;DHT22;5689;48.798;9.070;2024-02-23T02:29:19;6.00;99.90
11264;DHT22;5689;48.798;9.070;2024-02-23T02:31:47;6.00;99.90
11264;DHT22;5689;48.798;9.070;2024-02-23T02:34:17;6.00;99.90
11264;DHT22;5689;48.798;9.070;2024-02-23T02:36:45;6.00;99.90
11264;DHT22;5689;48.798;9.070;2024-02-23T02:39:13;6.10;99.90
11264;DHT22;5689;48.798;9.070;2024-02-23T02:41:41;6.10;99.90
11264;DHT22;5689;48.798;9.070;2024-02-23T02:44:09;6.10;99.90
11264;DHT22;5689;48.798;9.070;2024-02-23T02:46:40;6.10;99.90
11264;DHT22;5689;48.798;9.070;2024-02-23T02:49:08;6.10;99.90
11264;DHT22;5689;48.798;9.070;2024-02-23T02:51:38;6.00;99.90
11264;DHT22;5689;48.798;9.070;2024-02-23T02:54:06;6.00;99.90
11264;DHT22;5689;48.798;9.070;2024-02-23T02:56:35;6.00;99.90
11264;DHT22;5689;48.798;9.070;2024-02-23T02:59:03;5.90;99.90
11264;DHT22;5689;48.798;9.070;2024-02-23T03:01:31;6.00;99.90
11264;DHT22;5689;48.798;9.070;2024-02-23T03:03:59;5.90;99.90
11264;DHT22;5689;48.798;9.070;2024-02-23T03:06:28;5.90;99.90
11264;DHT22;5689;48.798;9.070;2024-02-23T03:08:57;5.90;99.90
11264;DHT22;5689;48.798;9.070;2024-02-23T03:11:25;5.90;99.90
11264;DHT22;5689;48.798;9.070;2024-02-23T03:13:53;5.90;99.90
11264;DHT22;5689;48.798;9.070;2024-02-23T03:16:21;5.90;99.90
11264;DHT22;5689;48.798;9.070;2024-02-23T03:18:52;5.90;99.90
11264;DHT22;5689;48.798;9.070;2024-02-23T03:21:21;5.90;99.90
11264;DHT22;5689;48.798;9.070;2024-02-23T03:23:50;5.90;99.90
11264;DHT22;5689;48.798;9.070;2024-02-23T03:26:20;5.80;99.90
11264;DHT22;5689;48.798;9.070;2024-02-23T03:28:48;5.80;99.90
11264;DHT22;5689;48.798;9.070;2024-02-23T03:31:17;5.90;99.90
11264;DHT22;5689;48.798;9.070;2024-02-23T03:33:45;5.80;99.90
11264;DHT22;5689;48.798;9.070;2024-02-23T03:36:13;5.80;99.90
11264;DHT22;5689;48.798;9.070;2024-02-23T03:38:41;5.80;99.90
11264;DHT22;5689;48.798;9.070;2024-02-23T03:41:09;5.80;99.90
11264;DHT22;5689;48.798;9.070;2024-02-23T03:43:39;5.80;99.90
11264;DHT22;5689;48.798;9.070;2024-02-23T03:46:07;5.80;99.90
11264;DHT22;5689;48.798;9.070;2024-02-23T03:48:35;5.70;99.90
11264;DHT22;5689;48.798;9.070;2024-02-23T03:51:04;5.70;99.90
11264;DHT22;5689;48.798;9.070;2024-02-23T03:57:21;5.70;99.90
11264;DHT22;5689;48.798;9.070;2024-02-23T03:59:54;5.60;99.90
11264;DHT22;5689;48.798;9.070;2024-02-23T04:02:22;5.50;99.90
11264;DHT22;5689;48.798;9.070;2024-02-23T04:04:50;5.50;99.90
11264;DHT22;5689;48.798;9.070;2024-02-23T04:07:18;5.50;99.90
11264;DHT22;5689;48.798;9.070;2024-02-23T04:09:47;5.50;99.90
11264;DHT22;5689;48.798;9.070;2024-02-23T04:12:19;5.50;99.90
11264;DHT22;5689;48.798;9.070;2024-02-23T04:14:47;5.40;99.90
11264;DHT22;5689;48.798;9.070;2024-02-23T04:17:17;5.50;99.90
11264;DHT22;5689;48.798;9.070;2024-02-23T04:19:45;5.50;99.90
11264;DHT22;5689;48.798;9.070;2024-02-23T04:22:14;5.50;99.90
11264;DHT22;5689;48.798;9.070;2024-02-23T04:24:42;5.30;99.90
11264;DHT22;5689;48.798;9.070;2024-02-23T04:27:10;5.30;99.90
11264;DHT22;5689;48.798;9.070;2024-02-23T04:29:38;5.30;99.90
11264;DHT22;5689;48.798;9.070;2024-02-23T04:32:06;5.30;99.90
11264;DHT22;5689;48.798;9.070;2024-02-23T04:34:36;5.20;99.90
11264;DHT22;5689;48.798;9.070;2024-02-23T04:37:04;5.20;99.90
11264;DHT22;5689;48.798;9.070;2024-02-23T04:39:32;5.20;99.90
11264;DHT22;5689;48.798;9.070;2024-02-23T04:42:01;5.20;99.90
11264;DHT22;5689;48.798;9.070;2024-02-23T04:44:29;5.20;99.90
11264;DHT22;5689;48.798;9.070;2024-02-23T04:46:57;5.00;99.90
11264;DHT22;5689;48.798;9.070;2024-02-23T04:49:25;5.20;99.90
11264;DHT22;5689;48.798;9.070;2024-02-23T04:51:55;5.10;99.90
11264;DHT22;5689;48.798;9.070;2024-02-23T04:54:23;5.10;99.90
11264;DHT22;5689;48.798;9.070;2024-02-23T04:56:51;5.10;99.90
11264;DHT22;5689;48.798;9.070;2024-02-23T04:59:19;5.10;99.90
11264;DHT22;5689;48.798;9.070;2024-02-23T05:01:47;5.10;99.90
11264;DHT22;5689;48.798;9.070;2024-02-23T05:04:16;5.10;99.90
11264;DHT22;5689;48.798;9.070;2024-02-23T05:06:44;5.10;99.90
11264;DHT22;5689;48.798;9.070;2024-02-23T05:09:14;4.90;99.90
11264;DHT22;5689;48.798;9.070;2024-02-23T05:11:42;4.90;99.90
11264;DHT22;5689;48.798;9.070;2024-02-23T05:14:10;4.80;99.90
11264;DHT22;5689;48.798;9.070;2024-02-23T05:16:38;4.70;99.90
11264;DHT22;5689;48.798;9.070;2024-02-23T05:19:06;4.50;99.90
11264;DHT22;5689;48.798;9.070;2024-02-23T05:21:35;4.50;99.90
11264;DHT22;5689;48.798;9.070;2024-02-23T05:24:03;4.30;99.90
11264;DHT22;5689;48.798;9.070;2024-02-23T05:26:34;4.20;99.90
11264;DHT22;5689;48.798;9.070;2024-02-23T05:29:02;4.30;99.90
11264;DHT22;5689;48.798;9.070;2024-02-23T05:31:44;4.20;99.90
11264;DHT22;5689;48.798;9.070;2024-02-23T05:34:13;4.30;99.90
11264;DHT22;5689;48.798;9.070;2024-02-23T05:36:42;4.30;99.90
11264;DHT22;5689;48.798;9.070;2024-02-23T05:39:10;4.30;99.90
11264;DHT22;5689;48.798;9.070;2024-02-23T05:41:41;4.40;99.90
11264;DHT22;5689;48.798;9.070;2024-02-23T05:44:09;4.40;99.90
11264;DHT22;5689;48.798;9.070;2024-02-23T05:46:40;4.30;99.90
11264;DHT22;5689;48.798;9.070;2024-02-23T05:49:08;4.20;99.90
11264;DHT22;5689;48.798;9.070;2024-02-23T05:51:36;4.40;99.90
11264;DHT22;5689;48.798;9.070;2024-02-23T05:54:04;4.50;99.90
11264;DHT22;5689;48.798;9.070;2024-02-23T05:56:32;4.50;99.90
11264;DHT22;5689;48.798;9.070;2024-02-23T05:59:02;4.50;99.90
11264;DHT22;5689;48.798;9.070;2024-02-23T06:01:30;4.30;99.90
11264;DHT22;5689;48.798;9.070;2024-02-23T06:03:58;4.30;99.90
11264;DHT22;5689;48.798;9.070;2024-02-23T06:06:26;4.30;99.90
11264;DHT22;5689;48.798;9.070;2024-02-23T06:08:54;4.30;99.90
11264;DHT22;5689;48.798;9.070;2024-02-23T06:11:23;4.30;99.90
11264;DHT22;5689;48.798;9.070;2024-02-23T06:13:51;4.40;99.90
11264;DHT22;5689;48.798;9.070;2024-02-23T06:16:20;4.40;99.90
11264;DHT22;5689;48.798;9.070;2024-02-23T06:18:48;4.50;99.90
11264;DHT22;5689;48.798;9.070;2024-02-23T06:21:18;4.60;99.90
11264;DHT22;5689;48.798;9.070;2024-02-23T06:23:46;4.50;99.90
11264;DHT22;5689;48.798;9.070;2024-02-23T06:26:14;4.50;99.90
11264;DHT22;5689;48.798;9.070;2024-02-23T06:28:42;4.40;99.90
11264;DHT22;5689;48.798;9.070;2024-02-23T06:31:10;4.30;99.90
11264;DHT22;5689;48.798;9.070;2024-02-23T06:33:40;4.20;99.90
11264;DHT22;5689;48.798;9.070;2024-02-23T06:36:09;4.10;99.90
11264;DHT22;5689;48.798;9.070;2024-02-23T06:38:37;4.10;99.90
11264;DHT22;5689;48.798;9.070;2024-02-23T06:41:05;4.20;99.90
11264;DHT22;5689;48.798;9.070;2024-02-23T06:43:35;4.20;99.90
11264;DHT22;5689;48.798;9.070;2024-02-23T06:46:07;4.30;99.90
11264;DHT22;5689;48.798;9.070;2024-02-23T06:48:36;4.40;99.90
11264;DHT22;5689;48.798;9.070;2024-02-23T06:51:06;4.40;99.90
11264;DHT22;5689;48.798;9.070;2024-02-23T06:53:36;4.60;99.90
11264;DHT22;5689;48.798;9.070;2024-02-23T06:56:05;4.60;99.90
11264;DHT22;5689;48.798;9.070;2024-02-23T06:58:34;4.60;99.90
11264;DHT22;5689;48.798;9.070;2024-02-23T07:01:02;4.60;99.90
11264;DHT22;5689;48.798;9.070;2024-02-23T07:03:32;4.70;99.90
11264;DHT22;5689;48.798;9.070;2024-02-23T07:06:02;4.80;99.90
11264;DHT22;5689;48.798;9.070;2024-02-23T07:08:32;4.80;99.90
11264;DHT22;5689;48.798;9.070;2024-02-23T07:11:00;4.80;99.90
11264;DHT22;5689;48.798;9.070;2024-02-23T07:13:28;4.80;99.90
11264;DHT22;5689;48.798;9.070;2024-02-23T07:15:56;4.80;99.90
11264;DHT22;5689;48.798;9.070;2024-02-23T07:18:25;4.80;99.90
11264;DHT22;5689;48.798;9.070;2024-02-23T07:20:53;4.80;99.90
11264;DHT22;5689;48.798;9.070;2024-02-23T07:23:21;4.80;99.90
11264;DHT22;5689;48.798;9.070;2024-02-23T07:25:51;4.80;99.90
11264;DHT22;5689;48.798;9.070;2024-02-23T07:28:20;4.90;99.90
11264;DHT22;5689;48.798;9.070;2024-02-23T07:30:50;5.10;99.90
11264;DHT22;5689;48.798;9.070;2024-02-23T07:33:19;5.20;99.90
11264;DHT22;5689;48.798;9.070;2024-02-23T07:35:48;5.30;99.90
11264;DHT22;5689;48.798;9.070;2024-02-23T07:38:16;5.30;99.90
11264;DHT22;5689;48.798;9.070;2024-02-23T07:40:46;5.30;99.90
11264;DHT22;5689;48.798;9.070;2024-02-23T07:43:16;5.30;99.90
11264;DHT22;5689;48.798;9.070;2024-02-23T07:45:44;5.50;99.90
11264;DHT22;5689;48.798;9.070;2024-02-23T07:48:12;5.60;99.90
11264;DHT22;5689;48.798;9.070;2024-02-23T07:50:41;5.60;99.90
11264;DHT22;5689;48.798;9.070;2024-02-23T07:53:09;5.70;99.90
11264;DHT22;5689;48.798;9.070;2024-02-23T07:55:38;5.80;99.90
11264;DHT22;5689;48.798;9.070;2024-02-23T07:58:06;5.90;99.90
11264;DHT22;5689;48.798;9.070;2024-02-23T08:00:35;5.90;99.90
11264;DHT22;5689;48.798;9.070;2024-02-23T08:03:05;6.00;99.90
11264;DHT22;5689;48.798;9.070;2024-02-23T08:05:35;6.10;99.90
11264;DHT22;5689;48.798;9.070;2024-02-23T08:08:04;6.00;99.90
11264;DHT22;5689;48.798;9.070;2024-02-23T08:10:33;5.80;99.90
11264;DHT22;5689;48.798;9.070;2024-02-23T08:13:01;5.70;99.90
11264;DHT22;5689;48.798;9.070;2024-02-23T08:15:30;5.70;99.90
11264;DHT22;5689;48.798;9.070;2024-02-23T08:17:59;5.70;99.90
11264;DHT22;5689;48.798;9.070;2024-02-23T08:20:28;5.70;99.90
11264;DHT22;5689;48.798;9.070;2024-02-23T08:22:56;5.70;99.90
11264;DHT22;5689;48.798;9.070;2024-02-23T08:25:24;5.80;99.90
11264;DHT22;5689;48.798;9.070;2024-02-23T08:27:55;5.90;99.90
11264;DHT22;5689;48.798;9.070;2024-02-23T08:30:23;6.40;99.90
11264;DHT22;5689;48.798;9.070;2024-02-23T08:32:51;6.60;99.90
11264;DHT22;5689;48.798;9.070;2024-02-23T08:35:21;6.40;99.90
11264;DHT22;5689;48.798;9.070;2024-02-23T08:37:49;6.40;99.90
11264;DHT22;5689;48.798;9.070;2024-02-23T08:40:18;6.20;99.90
11264;DHT22;5689;48.798;9.070;2024-02-23T08:42:46;6.10;99.90
11264;DHT22;5689;48.798;9.070;2024-02-23T08:45:16;6.00;99.90
11264;DHT22;5689;48.798;9.070;2024-02-23T08:47:44;6.20;99.90
11264;DHT22;5689;48.798;9.070;2024-02-23T08:50:13;6.20;99.90
11264;DHT22;5689;48.798;9.070;2024-02-23T08:52:42;6.20;99.90
11264;DHT22;5689;48.798;9.070;2024-02-23T08:55:11;6.20;99.90
11264;DHT22;5689;48.798;9.070;2024-02-23T08:57:39;6.10;99.90
11264;DHT22;5689;48.798;9.070;2024-02-23T09:00:09;6.00;99.90
11264;DHT22;5689;48.798;9.070;2024-02-23T09:02:38;6.00;99.90
11264;DHT22;5689;48.798;9.070;2024-02-23T09:05:09;6.00;99.90
11264;DHT22;5689;48.798;9.070;2024-02-23T09:07:37;6.20;99.90
11264;DHT22;5689;48.798;9.070;2024-02-23T09:10:07;5.90;99.90
11264;DHT22;5689;48.798;9.070;2024-02-23T09:12:35;6.00;99.90
11264;DHT22;5689;48.798;9.070;2024-02-23T09:15:05;5.90;99.90
11264;DHT22;5689;48.798;9.070;2024-02-23T09:17:33;5.80;99.90
11264;DHT22;5689;48.798;9.070;2024-02-23T09:20:02;5.80;99.90
11264;DHT22;5689;48.798;9.070;2024-02-23T09:22:30;5.90;99.90
11264;DHT22;5689;48.798;9.070;2024-02-23T09:24:58;5.90;99.90
11264;DHT22;5689;48.798;9.070;2024-02-23T09:27:28;5.90;99.90
11264;DHT22;5689;48.798;9.070;2024-02-23T09:29:56;6.20;99.90
11264;DHT22;5689;48.798;9.070;2024-02-23T09:32:24;6.50;99.90
11264;DHT22;5689;48.798;9.070;2024-02-23T09:34:53;6.90;99.90
11264;DHT22;5689;48.798;9.070;2024-02-23T09:37:21;7.00;99.90
11264;DHT22;5689;48.798;9.070;2024-02-23T09:39:49;7.70;99.90
11264;DHT22;5689;48.798;9.070;2024-02-23T09:42:19;8.10;99.90
11264;DHT22;5689;48.798;9.070;2024-02-23T09:44:57;8.10;99.90
11264;DHT22;5689;48.798;9.070;2024-02-23T09:47:27;8.40;99.90
11264;DHT22;5689;48.798;9.070;2024-02-23T09:49:56;8.60;99.90
11264;DHT22;5689;48.798;9.070;2024-02-23T09:52:24;8.50;99.90
11264;DHT22;5689;48.798;9.070;2024-02-23T09:54:54;8.30;99.90
11264;DHT22;5689;48.798;9.070;2024-02-23T09:57:22;8.40;99.90
11264;DHT22;5689;48.798;9.070;2024-02-23T09:59:52;8.60;99.90
11264;DHT22;5689;48.798;9.070;2024-02-23T10:02:21;8.30;99.90
11264;DHT22;5689;48.798;9.070;2024-02-23T10:04:51;8.30;99.90
11264;DHT22;5689;48.798;9.070;2024-02-23T10:07:21;8.50;99.90
11264;DHT22;5689;48.798;9.070;2024-02-23T10:09:49;8.80;99.90
11264;DHT22;5689;48.798;9.070;2024-02-23T10:12:17;8.50;99.90
11264;DHT22;5689;48.798;9.070;2024-02-23T10:14:45;8.70;99.90
11264;DHT22;5689;48.798;9.070;2024-02-23T10:17:15;8.40;99.90
11264;DHT22;5689;48.798;9.070;2024-02-23T10:19:44;8.50;99.90
11264;DHT22;5689;48.798;9.070;2024-02-23T10:22:12;8.30;99.90
11264;DHT22;5689;48.798;9.070;2024-02-23T10:24:42;8.50;99.90
11264;DHT22;5689;48.798;9.070;2024-02-23T10:27:10;8.10;99.90
11264;DHT22;5689;48.798;9.070;2024-02-23T10:29:38;7.90;99.90
11264;DHT22;5689;48.798;9.070;2024-02-23T10:32:07;8.10;99.90
11264;DHT22;5689;48.798;9.070;2024-02-23T10:34:38;8.30;99.90
11264;DHT22;5689;48.798;9.070;2024-02-23T10:37:08;8.80;99.90
11264;DHT22;5689;48.798;9.070;2024-02-23T10:39:36;8.70;99.90
11264;DHT22;5689;48.798;9.070;2024-02-23T10:42:09;8.70;99.90
11264;DHT22;5689;48.798;9.070;2024-02-23T10:44:38;9.00;99.90
11264;DHT22;5689;48.798;9.070;2024-02-23T10:47:07;9.20;99.80
11264;DHT22;5689;48.798;9.070;2024-02-23T10:49:38;9.40;99.60
11264;DHT22;5689;48.798;9.070;2024-02-23T10:52:07;10.10;98.90
11264;DHT22;5689;48.798;9.070;2024-02-23T10:54:39;10.30;97.50
11264;DHT22;5689;48.798;9.070;2024-02-23T10:57:08;9.40;98.60
11264;DHT22;5689;48.798;9.070;2024-02-23T10:59:36;9.50;98.80
11264;DHT22;5689;48.798;9.070;2024-02-23T11:02:05;9.80;98.40
11264;DHT22;5689;48.798;9.070;2024-02-23T11:04:34;9.90;97.90
11264;DHT22;5689;48.798;9.070;2024-02-23T11:07:13;10.00;96.90
11264;DHT22;5689;48.798;9.070;2024-02-23T11:09:41;10.40;96.80
11264;DHT22;5689;48.798;9.070;2024-02-23T11:12:09;10.10;96.40
11264;DHT22;5689;48.798;9.070;2024-02-23T11:14:38;9.80;97.00
11264;DHT22;5689;48.798;9.070;2024-02-23T11:17:07;9.90;98.00
11264;DHT22;5689;48.798;9.070;2024-02-23T11:19:46;10.90;96.50
11264;DHT22;5689;48.798;9.070;2024-02-23T11:22:23;10.20;95.70
11264;DHT22;5689;48.798;9.070;2024-02-23T11:25:00;10.00;95.90
11264;DHT22;5689;48.798;9.070;2024-02-23T11:27:31;9.80;96.90
11264;DHT22;5689;48.798;9.070;2024-02-23T11:30:01;9.30;97.10
11264;DHT22;5689;48.798;9.070;2024-02-23T11:32:38;9.70;96.80
11264;DHT22;5689;48.798;9.070;2024-02-23T11:35:08;9.60;96.60
11264;DHT22;5689;48.798;9.070;2024-02-23T11:37:46;9.70;97.20
11264;DHT22;5689;48.798;9.070;2024-02-23T11:40:15;9.60;96.90
11264;DHT22;5689;48.798;9.070;2024-02-23T11:42:45;9.40;97.40
11264;DHT22;5689;48.798;9.070;2024-02-23T11:45:14;8.80;97.10
11264;DHT22;5689;48.798;9.070;2024-02-23T11:47:42;8.60;97.70
11264;DHT22;5689;48.798;9.070;2024-02-23T11:50:11;8.10;98.50
11264;DHT22;5689;48.798;9.070;2024-02-23T11:52:40;8.40;98.40
11264;DHT22;5689;48.798;9.070;2024-02-23T11:55:10;8.50;97.90
11264;DHT22;5689;48.798;9.070;2024-02-23T11:57:38;8.50;97.80
11264;DHT22;5689;48.798;9.070;2024-02-23T12:00:08;8.50;98.00
11264;DHT22;5689;48.798;9.070;2024-02-23T12:02:37;8.80;98.00
11264;DHT22;5689;48.798;9.070;2024-02-23T12:05:06;8.80;97.70
11264;DHT22;5689;48.798;9.070;2024-02-23T12:07:35;9.10;96.90
11264;DHT22;5689;48.798;9.070;2024-02-23T12:10:04;9.00;97.40
11264;DHT22;5689;48.798;9.070;2024-02-23T12:12:34;10.20;96.20
11264;DHT22;5689;48.798;9.070;2024-02-23T12:15:03;10.70;94.40
11264;DHT22;5689;48.798;9.070;2024-02-23T12:17:31;10.30;94.50
11264;DHT22;5689;48.798;9.070;2024-02-23T12:20:00;10.10;94.80
11264;DHT22;5689;48.798;9.070;2024-02-23T12:22:28;10.30;94.60
11264;DHT22;5689;48.798;9.070;2024-02-23T12:24:57;10.10;94.40
11264;DHT22;5689;48.798;9.070;2024-02-23T12:27:26;9.70;95.50
11264;DHT22;5689;48.798;9.070;2024-02-23T12:29:57;10.10;95.30
11264;DHT22;5689;48.798;9.070;2024-02-23T12:32:26;9.90;95.30
11264;DHT22;5689;48.798;9.070;2024-02-23T12:34:56;9.60;95.70
11264;DHT22;5689;48.798;9.070;2024-02-23T12:37:24;9.80;96.10
11264;DHT22;5689;48.798;9.070;2024-02-23T12:39:53;9.50;96.00
11264;DHT22;5689;48.798;9.070;2024-02-23T12:42:21;9.30;95.60
11264;DHT22;5689;48.798;9.070;2024-02-23T12:44:49;9.10;96.30
11264;DHT22;5689;48.798;9.070;2024-02-23T12:47:19;9.10;96.40
11264;DHT22;5689;48.798;9.070;2024-02-23T12:49:47;9.30;96.20
11264;DHT22;5689;48.798;9.070;2024-02-23T12:52:15;9.10;96.00
11264;DHT22;5689;48.798;9.070;2024-02-23T12:54:44;9.10;95.70
11264;DHT22;5689;48.798;9.070;2024-02-23T12:57:12;9.10;95.70
11264;DHT22;5689;48.798;9.070;2024-02-23T12:59:40;9.00;95.70
11264;DHT22;5689;48.798;9.070;2024-02-23T13:02:11;8.80;96.00
11264;DHT22;5689;48.798;9.070;2024-02-23T13:04:41;8.60;96.00
11264;DHT22;5689;48.798;9.070;2024-02-23T13:07:15;8.60;96.10
11264;DHT22;5689;48.798;9.070;2024-02-23T13:09:44;8.90;95.60
11264;DHT22;5689;48.798;9.070;2024-02-23T13:12:12;9.10;95.80
11264;DHT22;5689;48.798;9.070;2024-02-23T13:14:41;9.00;95.50
11264;DHT22;5689;48.798;9.070;2024-02-23T13:17:09;9.00;95.70
11264;DHT22;5689;48.798;9.070;2024-02-23T13:19:37;9.10;95.40
11264;DHT22;5689;48.798;9.070;2024-02-23T13:22:07;8.80;95.90
11264;DHT22;5689;48.798;9.070;2024-02-23T13:24:35;8.70;96.20
11264;DHT22;5689;48.798;9.070;2024-02-23T13:27:04;9.10;95.60
11264;DHT22;5689;48.798;9.070;2024-02-23T13:29:32;9.00;95.80
11264;DHT22;5689;48.798;9.070;2024-02-23T13:32:00;8.90;95.90
11264;DHT22;5689;48.798;9.070;2024-02-23T13:34:28;8.90;96.00
11264;DHT22;5689;48.798;9.070;2024-02-23T13:36:56;9.20;95.80
11264;DHT22;5689;48.798;9.070;2024-02-23T13:39:26;9.30;95.70
11264;DHT22;5689;48.798;9.070;2024-02-23T13:41:54;9.40;95.20
11264;DHT22;5689;48.798;9.070;2024-02-23T13:44:22;9.50;95.50
11264;DHT22;5689;48.798;9.070;2024-02-23T13:46:51;10.60;94.60
11264;DHT22;5689;48.798;9.070;2024-02-23T13:49:19;10.20;94.60
11264;DHT22;5689;48.798;9.070;2024-02-23T13:51:47;10.10;94.60
11264;DHT22;5689;48.798;9.070;2024-02-23T13:54:16;10.30;94.40
11264;DHT22;5689;48.798;9.070;2024-02-23T13:56:46;9.90;95.10
11264;DHT22;5689;48.798;9.070;2024-02-23T13:59:14;9.60;95.30
11264;DHT22;5689;48.798;9.070;2024-02-23T14:01:42;9.50;96.00
11264;DHT22;5689;48.798;9.070;2024-02-23T14:04:12;9.30;96.40
11264;DHT22;5689;48.798;9.070;2024-02-23T14:06:40;9.50;96.50
11264;DHT22;5689;48.798;9.070;2024-02-23T14:09:08;9.20;96.60
11264;DHT22;5689;48.798;9.070;2024-02-23T14:11:37;10.10;95.10
11264;DHT22;5689;48.798;9.070;2024-02-23T14:14:08;9.60;95.80
11264;DHT22;5689;48.798;9.070;2024-02-23T14:16:36;9.10;96.30
11264;DHT22;5689;48.798;9.070;2024-02-23T14:19:05;9.00;96.80
11264;DHT22;5689;48.798;9.070;2024-02-23T14:21:33;9.50;96.40
11264;DHT22;5689;48.798;9.070;2024-02-23T14:24:03;9.90;96.30
11264;DHT22;5689;48.798;9.070;2024-02-23T14:26:31;11.90;93.90
11264;DHT22;5689;48.798;9.070;2024-02-23T14:29:00;13.20;91.80
11264;DHT22;5689;48.798;9.070;2024-02-23T14:31:30;12.80;92.10
11264;DHT22;5689;48.798;9.070;2024-02-23T14:33:59;12.10;92.10
11264;DHT22;5689;48.798;9.070;2024-02-23T14:36:27;11.20;93.00
11264;DHT22;5689;48.798;9.070;2024-02-23T14:39:00;10.20;93.50
11264;DHT22;5689;48.798;9.070;2024-02-23T14:41:31;9.90;94.90
11264;DHT22;5689;48.798;9.070;2024-02-23T14:44:00;9.70;95.90
11264;DHT22;5689;48.798;9.070;2024-02-23T14:46:29;11.10;93.40
11264;DHT22;5689;48.798;9.070;2024-02-23T14:48:58;10.30;93.80
11264;DHT22;5689;48.798;9.070;2024-02-23T14:51:26;9.80;94.90
11264;DHT22;5689;48.798;9.070;2024-02-23T14:53:54;9.40;95.40
11264;DHT22;5689;48.798;9.070;2024-02-23T14:56:22;9.00;96.00
11264;DHT22;5689;48.798;9.070;2024-02-23T14:58:50;8.70;96.50
11264;DHT22;5689;48.798;9.070;2024-02-23T15:01:19;8.80;96.70
11264;DHT22;5689;48.798;9.070;2024-02-23T15:03:48;8.60;96.90
11264;DHT22;5689;48.798;9.070;2024-02-23T15:06:16;8.50;96.60
11264;DHT22;5689;48.798;9.070;2024-02-23T15:08:45;8.70;96.80
11264;DHT22;5689;48.798;9.070;2024-02-23T15:11:14;8.50;96.50
11264;DHT22;5689;48.798;9.070;2024-02-23T15:13:42;8.50;96.60
11264;DHT22;5689;48.798;9.070;2024-02-23T15:16:10;8.40;96.80
11264;DHT22;5689;48.798;9.070;2024-02-23T15:18:38;8.20;97.10
11264;DHT22;5689;48.798;9.070;2024-02-23T15:21:08;8.20;97.30
11264;DHT22;5689;48.798;9.070;2024-02-23T15:23:36;8.30;97.50
11264;DHT22;5689;48.798;9.070;2024-02-23T15:26:04;8.50;97.50
11264;DHT22;5689;48.798;9.070;2024-02-23T15:28:33;8.60;97.10
11264;DHT22;5689;48.798;9.070;2024-02-23T15:31:01;8.60;96.80
11264;DHT22;5689;48.798;9.070;2024-02-23T15:33:30;8.60;97.90
11264;DHT22;5689;48.798;9.070;2024-02-23T15:35:58;8.50;98.60
11264;DHT22;5689;48.798;9.070;2024-02-23T15:38:28;8.40;99.10
11264;DHT22;5689;48.798;9.070;2024-02-23T15:40:56;8.40;99.50
11264;DHT22;5689;48.798;9.070;2024-02-23T15:43:25;8.40;99.90
11264;DHT22;5689;48.798;9.070;2024-02-23T15:45:55;8.40;99.90
11264;DHT22;5689;48.798;9.070;2024-02-23T15:48:24;7.80;99.90
11264;DHT22;5689;48.798;9.070;2024-02-23T15:50:53;7.60;99.90
11264;DHT22;5689;48.798;9.070;2024-02-23T15:53:24;7.40;99.90
11264;DHT22;5689;48.798;9.070;2024-02-23T15:55:54;7.70;99.90
11264;DHT22;5689;48.798;9.070;2024-02-23T15:58:22;8.20;99.90
11264;DHT22;5689;48.798;9.070;2024-02-23T16:00:50;8.40;99.90
11264;DHT22;5689;48.798;9.070;2024-02-23T16:03:20;7.90;99.90
11264;DHT22;5689;48.798;9.070;2024-02-23T16:05:49;7.50;99.90
11264;DHT22;5689;48.798;9.070;2024-02-23T16:08:18;7.30;99.90
11264;DHT22;5689;48.798;9.070;2024-02-23T16:10:46;7.10;99.90
11264;DHT22;5689;48.798;9.070;2024-02-23T16:13:16;7.00;99.90